createdAt,value
2019-04-25T00:00:34.371Z,1.20
2019-04-25T00:03:03.278Z,3.07
2019-04-25T00:05:32.331Z,4.03
2019-04-25T00:08:01.531Z,1.80
2019-04-25T00:10:31.790Z,4.70
2019-04-25T00:13:01.677Z,3.80
2019-04-25T00:15:31.857Z,1.40
2019-04-25T00:18:02.248Z,2.60
2019-04-25T00:20:32.215Z,2.53
2019-04-25T00:23:11.758Z,3.80
2019-04-25T00:25:45.220Z,3.37
2019-04-25T00:28:11.978Z,1.80
2019-04-25T00:30:42.626Z,3.33
2019-04-25T00:33:11.612Z,1.20
2019-04-25T00:35:42.538Z,3.10
2019-04-25T00:38:12.109Z,1.20
2019-04-25T00:40:42.719Z,2.50
2019-04-25T00:43:11.420Z,2.17
2019-04-25T00:45:41.498Z,2.50
2019-04-25T00:48:10.067Z,2.80
2019-04-25T00:50:38.472Z,2.60
2019-04-25T00:53:06.844Z,3.57
2019-04-25T00:55:35.234Z,2.20
2019-04-25T00:58:07.826Z,1.13
2019-04-25T01:00:37.819Z,1.73
2019-04-25T01:03:07.880Z,1.60
2019-04-25T01:05:36.199Z,2.23
2019-04-25T01:08:04.568Z,3.77
2019-04-25T01:10:33.044Z,3.50
2019-04-25T01:13:03.059Z,1.57
2019-04-25T01:15:31.598Z,1.77
2019-04-25T01:18:01.182Z,2.47
2019-04-25T01:20:29.741Z,1.27
2019-04-25T01:23:00.803Z,2.47
2019-04-25T01:25:38.620Z,1.40
2019-04-25T01:27:58.713Z,4.33
2019-04-25T01:30:27.991Z,1.60
2019-04-25T01:32:56.749Z,1.50
2019-04-25T01:35:26.776Z,4.63
2019-04-25T01:38:13.714Z,2.70
2019-04-25T01:41:03.396Z,1.47
2019-04-25T01:43:52.769Z,2.30
2019-04-25T01:46:19.838Z,2.77
2019-04-25T01:48:48.610Z,6.00
2019-04-25T01:51:17.266Z,3.27
2019-04-25T01:53:45.627Z,2.73
2019-04-25T01:56:14.472Z,2.50
2019-04-25T01:58:43.800Z,5.20
2019-04-25T02:01:14.346Z,2.53
2019-04-25T02:03:44.230Z,2.07
2019-04-25T02:06:13.675Z,1.40
2019-04-25T02:08:44.172Z,3.43
2019-04-25T02:11:16.660Z,2.33
2019-04-25T02:13:45.227Z,2.07
2019-04-25T02:16:14.202Z,2.43
2019-04-25T02:18:43.571Z,3.70
2019-04-25T02:21:13.625Z,1.43
2019-04-25T02:23:44.045Z,1.77
2019-04-25T02:26:16.710Z,1.37
2019-04-25T02:28:43.705Z,1.93
2019-04-25T02:31:18.011Z,2.83
2019-04-25T02:33:44.227Z,2.00
2019-04-25T02:36:15.057Z,2.93
2019-04-25T02:38:44.242Z,2.17
2019-04-25T02:41:14.761Z,3.00
2019-04-25T02:43:45.030Z,3.17
2019-04-25T02:46:26.701Z,6.23
2019-04-25T02:49:06.698Z,2.73
2019-04-25T02:51:35.022Z,2.40
2019-04-25T02:54:06.737Z,2.30
2019-04-25T02:56:38.236Z,5.33
2019-04-25T02:59:06.989Z,2.37
2019-04-25T03:01:34.312Z,1.80
2019-04-25T03:04:04.931Z,2.50
2019-04-25T03:06:35.029Z,3.50
2019-04-25T03:09:05.671Z,2.93
2019-04-25T03:11:34.716Z,2.07
2019-04-25T03:14:06.348Z,3.07
2019-04-25T03:16:34.761Z,4.23
2019-04-25T03:19:16.978Z,3.53
2019-04-25T03:21:47.863Z,1.90
2019-04-25T03:24:16.894Z,1.60
2019-04-25T03:26:45.741Z,5.93
2019-04-25T03:29:14.225Z,6.90
2019-04-25T03:31:45.000Z,2.87
2019-04-25T03:34:17.234Z,4.63
2019-04-25T03:36:43.841Z,2.20
2019-04-25T03:39:14.448Z,2.03
2019-04-25T03:41:43.864Z,2.60
2019-04-25T03:44:13.945Z,2.87
2019-04-25T03:46:43.798Z,2.80
2019-04-25T03:49:13.559Z,2.70
2019-04-25T03:51:43.869Z,3.27
2019-04-25T03:54:14.306Z,2.83
2019-04-25T03:56:53.233Z,4.80
2019-04-25T03:59:14.664Z,3.27
2019-04-25T04:01:45.404Z,6.50
2019-04-25T04:04:16.312Z,2.17
2019-04-25T04:06:44.159Z,2.10
2019-04-25T04:09:14.255Z,2.83
2019-04-25T04:11:43.531Z,2.97
2019-04-25T04:14:12.973Z,2.13
2019-04-25T04:16:44.360Z,2.43
2019-04-25T04:19:14.734Z,2.20
2019-04-25T04:21:53.123Z,3.40
2019-04-25T04:24:26.142Z,3.80
2019-04-25T04:27:11.105Z,4.87
2019-04-25T04:29:40.499Z,3.00
2019-04-25T04:32:08.856Z,9.90
2019-04-25T04:34:37.314Z,13.30
2019-04-25T04:37:05.718Z,16.10
2019-04-25T04:39:34.397Z,16.73
2019-04-25T04:42:03.831Z,15.53
2019-04-25T04:44:34.195Z,13.77
2019-04-25T04:47:03.978Z,8.30
2019-04-25T04:49:34.047Z,8.50
2019-04-25T04:52:04.523Z,8.80
2019-04-25T04:54:34.421Z,16.57
2019-04-25T04:57:16.686Z,10.83
2019-04-25T04:59:33.826Z,10.97
2019-04-25T05:02:06.836Z,8.53
2019-04-25T05:04:37.645Z,8.20
2019-04-25T05:07:15.033Z,6.17
2019-04-25T05:09:43.605Z,7.30
2019-04-25T05:12:13.055Z,9.53
2019-04-25T05:14:41.707Z,4.87
2019-04-25T05:17:10.242Z,6.00
2019-04-25T05:19:38.696Z,4.90
2019-04-25T05:22:07.237Z,6.33
2019-04-25T05:24:35.709Z,5.20
2019-04-25T05:27:04.254Z,5.03
2019-04-25T05:29:33.975Z,8.47
2019-04-25T05:32:04.139Z,10.03
2019-04-25T05:34:34.226Z,7.30
2019-04-25T05:37:03.859Z,2.30
2019-04-25T05:39:33.436Z,4.93
2019-04-25T05:42:07.740Z,3.67
2019-04-25T05:44:36.199Z,4.17
2019-04-25T05:47:04.919Z,6.00
2019-04-25T05:49:34.291Z,4.53
2019-04-25T05:52:04.010Z,4.67
2019-04-25T05:54:33.994Z,3.20
2019-04-25T05:57:03.730Z,5.23
2019-04-25T05:59:33.532Z,2.30
2019-04-25T06:02:03.834Z,2.83
2019-04-25T06:04:33.524Z,2.50
2019-04-25T06:07:02.036Z,4.90
2019-04-25T06:09:38.273Z,3.50
2019-04-25T06:12:14.439Z,3.33
2019-04-25T06:14:43.394Z,7.70
2019-04-25T06:17:13.751Z,4.47
2019-04-25T06:19:43.690Z,7.33
2019-04-25T06:22:19.952Z,2.90
2019-04-25T06:24:50.949Z,3.93
2019-04-25T06:27:20.905Z,2.87
2019-04-25T06:29:58.167Z,10.03
2019-04-25T06:32:21.523Z,3.60
2019-04-25T06:34:50.058Z,3.17
2019-04-25T06:37:18.428Z,2.50
2019-04-25T06:39:46.834Z,2.70
2019-04-25T06:42:15.204Z,3.70
2019-04-25T06:44:54.250Z,4.53
2019-04-25T06:47:30.080Z,3.93
2019-04-25T06:49:58.416Z,3.43
2019-04-25T06:52:30.023Z,2.20
2019-04-25T06:54:57.099Z,3.50
2019-04-25T06:57:26.975Z,3.10
2019-04-25T06:59:55.464Z,5.63
2019-04-25T07:02:25.388Z,4.80
2019-04-25T07:04:54.093Z,5.73
2019-04-25T07:07:24.543Z,2.50
2019-04-25T07:09:53.511Z,2.40
2019-04-25T07:12:26.267Z,3.30
2019-04-25T07:14:53.933Z,4.70
2019-04-25T07:17:24.094Z,4.33
2019-04-25T07:19:54.141Z,2.00
2019-04-25T07:22:23.968Z,5.63
2019-04-25T07:24:53.753Z,1.93
2019-04-25T07:27:26.650Z,2.13
2019-04-25T07:30:26.700Z,3.87
2019-04-25T07:32:48.904Z,3.67
2019-04-25T07:35:17.451Z,2.70
2019-04-25T07:37:45.840Z,5.60
2019-04-25T07:40:14.856Z,4.10
2019-04-25T07:42:43.914Z,3.00
2019-04-25T07:45:14.110Z,4.70
2019-04-25T07:47:44.142Z,5.50
2019-04-25T07:50:15.090Z,5.33
2019-04-25T07:52:44.324Z,4.97
2019-04-25T07:55:13.775Z,1.57
2019-04-25T07:57:44.178Z,5.87
2019-04-25T08:00:14.313Z,8.33
2019-04-25T08:02:43.575Z,7.97
2019-04-25T08:05:14.475Z,3.60
2019-04-25T08:07:43.672Z,3.50
2019-04-25T08:10:14.009Z,3.27
2019-04-25T08:12:44.400Z,2.10
2019-04-25T08:15:31.796Z,4.40
2019-04-25T08:18:04.540Z,2.20
2019-04-25T08:20:34.739Z,2.20
2019-04-25T08:23:04.376Z,3.13
2019-04-25T08:25:33.503Z,3.90
2019-04-25T08:28:03.852Z,3.50
2019-04-25T08:30:34.177Z,3.53
2019-04-25T08:33:03.976Z,3.03
2019-04-25T08:35:34.202Z,6.20
2019-04-25T08:38:03.707Z,6.73
2019-04-25T08:40:35.815Z,3.73
2019-04-25T08:43:03.518Z,3.00
2019-04-25T08:45:33.555Z,2.10
2019-04-25T08:48:03.640Z,2.90
2019-04-25T08:50:41.058Z,2.67
2019-04-25T08:53:09.821Z,2.47
2019-04-25T08:55:44.447Z,5.00
2019-04-25T08:58:14.324Z,4.77
2019-04-25T09:00:58.062Z,6.37
2019-04-25T09:03:18.872Z,4.50
2019-04-25T09:05:49.084Z,5.53
2019-04-25T09:08:17.453Z,3.13
2019-04-25T09:10:45.843Z,3.77
2019-04-25T09:13:14.161Z,1.50
2019-04-25T09:15:45.449Z,4.37
2019-04-25T09:18:14.103Z,1.30
2019-04-25T09:20:43.871Z,2.30
2019-04-25T09:23:13.628Z,7.40
2019-04-25T09:25:44.454Z,2.87
2019-04-25T09:28:13.789Z,7.00
2019-04-25T09:30:44.470Z,3.10
2019-04-25T09:33:13.362Z,2.73
2019-04-25T09:35:41.994Z,3.67
2019-04-25T09:38:10.524Z,4.37
2019-04-25T09:40:39.525Z,5.10
2019-04-25T09:43:07.846Z,3.80
2019-04-25T09:45:40.397Z,2.80
2019-04-25T09:48:23.172Z,5.30
2019-04-25T09:51:03.569Z,3.67
2019-04-25T09:53:34.846Z,1.93
2019-04-25T09:56:17.554Z,3.70
2019-04-25T09:58:53.974Z,7.00
2019-04-25T10:01:24.014Z,5.07
2019-04-25T10:03:54.271Z,1.30
2019-04-25T10:06:23.390Z,2.63
2019-04-25T10:08:51.905Z,1.30
2019-04-25T10:11:23.622Z,2.27
2019-04-25T10:14:06.879Z,2.60
2019-04-25T10:16:35.395Z,2.20
2019-04-25T10:19:03.935Z,2.33
2019-04-25T10:21:32.354Z,1.53
2019-04-25T10:24:01.063Z,2.60
2019-04-25T10:26:29.595Z,2.60
2019-04-25T10:28:57.958Z,2.10
2019-04-25T10:31:26.603Z,2.40
2019-04-25T10:33:55.243Z,2.20
2019-04-25T10:36:24.699Z,2.73
2019-04-25T10:39:04.076Z,4.83
2019-04-25T10:41:24.483Z,1.10
2019-04-25T10:43:54.660Z,3.07
2019-04-25T10:46:24.416Z,4.60
2019-04-25T10:48:55.947Z,2.17
2019-04-25T10:51:23.966Z,2.97
2019-04-25T10:53:53.872Z,1.73
2019-04-25T10:56:24.238Z,2.70
2019-04-25T10:58:54.783Z,1.00
2019-04-25T11:01:24.410Z,3.03
2019-04-25T11:03:55.707Z,3.10
2019-04-25T11:06:25.766Z,2.40
2019-04-25T11:08:56.446Z,2.17
2019-04-25T11:11:24.502Z,4.83
2019-04-25T11:13:55.651Z,1.47
2019-04-25T11:16:24.302Z,3.23
2019-04-25T11:18:54.770Z,3.53
2019-04-25T11:21:24.250Z,3.10
2019-04-25T11:23:55.055Z,1.17
2019-04-25T11:26:23.344Z,5.23
2019-04-25T11:28:51.800Z,1.53
2019-04-25T11:31:23.382Z,2.63
2019-04-25T11:33:52.001Z,3.03
2019-04-25T11:36:20.393Z,4.03
2019-04-25T11:39:06.762Z,5.77
2019-04-25T11:41:35.586Z,4.43
2019-04-25T11:44:04.275Z,1.00
2019-04-25T11:46:33.316Z,8.60
2019-04-25T11:49:01.819Z,4.43
2019-04-25T11:51:30.113Z,2.80
2019-04-25T11:53:58.525Z,8.03
2019-04-25T11:56:26.920Z,3.27
2019-04-25T11:58:55.541Z,2.47
2019-04-25T12:01:24.444Z,4.73
2019-04-25T12:03:52.773Z,2.63
2019-04-25T12:06:21.158Z,4.73
2019-04-25T12:08:49.732Z,11.53
2019-04-25T12:11:18.019Z,4.97
2019-04-25T12:13:47.820Z,4.50
2019-04-25T12:16:17.277Z,5.07
2019-04-25T12:18:48.062Z,4.30
2019-04-25T12:21:15.999Z,0.77
2019-04-25T12:23:46.413Z,2.00
2019-04-25T12:26:14.583Z,3.23
2019-04-25T12:28:42.970Z,2.60
2019-04-25T12:31:13.266Z,2.57
2019-04-25T12:33:41.616Z,1.00
2019-04-25T12:36:10.010Z,2.70
2019-04-25T12:38:38.554Z,2.50
2019-04-25T12:41:06.976Z,3.17
2019-04-25T12:43:37.156Z,2.97
2019-04-25T12:46:07.224Z,1.80
2019-04-25T12:48:35.690Z,4.17
2019-04-25T12:51:04.436Z,2.00
2019-04-25T12:53:33.450Z,1.53
2019-04-25T12:56:04.383Z,0.80
2019-04-25T12:58:33.454Z,3.53
2019-04-25T13:01:01.979Z,1.70
2019-04-25T13:03:30.514Z,1.10
2019-04-25T13:05:59.048Z,1.10
2019-04-25T13:08:27.817Z,0.87
2019-04-25T13:11:07.557Z,2.30
2019-04-25T13:13:26.182Z,1.40
2019-04-25T13:15:54.703Z,2.13
2019-04-25T13:18:23.111Z,3.67
2019-04-25T13:20:51.541Z,2.70
2019-04-25T13:23:20.282Z,1.40
2019-04-25T13:25:49.252Z,1.00
2019-04-25T13:28:19.263Z,1.47
2019-04-25T13:31:01.510Z,1.47
2019-04-25T13:33:36.064Z,1.23
2019-04-25T13:36:06.478Z,2.83
2019-04-25T13:38:34.867Z,1.67
2019-04-25T13:41:04.083Z,1.33
2019-04-25T13:43:32.735Z,1.60
2019-04-25T13:46:01.125Z,3.33
2019-04-25T13:48:29.512Z,0.60
2019-04-25T13:50:58.000Z,2.17
2019-04-25T13:53:27.284Z,1.47
2019-04-25T13:55:55.841Z,2.40
2019-04-25T13:58:25.505Z,4.83
2019-04-25T14:00:53.869Z,1.63
2019-04-25T14:03:22.968Z,1.00
2019-04-25T14:05:53.956Z,1.20
2019-04-25T14:08:24.415Z,4.73
2019-04-25T14:10:54.205Z,3.90
2019-04-25T14:13:25.132Z,1.60
2019-04-25T14:15:54.721Z,2.70
2019-04-25T14:18:31.495Z,1.20
2019-04-25T14:21:10.113Z,0.67
2019-04-25T14:23:38.734Z,5.43
2019-04-25T14:26:07.249Z,1.30
2019-04-25T14:28:35.920Z,1.77
2019-04-25T14:31:04.724Z,1.13
2019-04-25T14:33:34.875Z,4.40
2019-04-25T14:36:03.247Z,1.13
2019-04-25T14:38:31.661Z,1.60
2019-04-25T14:41:00.295Z,1.00
2019-04-25T14:43:29.061Z,2.33
2019-04-25T14:45:58.168Z,2.80
2019-04-25T14:48:27.222Z,2.87
2019-04-25T14:50:55.649Z,0.80
2019-04-25T14:53:24.406Z,3.70
2019-04-25T14:56:09.614Z,1.10
2019-04-25T14:58:39.689Z,1.20
2019-04-25T15:01:08.306Z,1.37
2019-04-25T15:03:36.875Z,1.47
2019-04-25T15:06:06.109Z,1.10
2019-04-25T15:08:34.605Z,1.43
2019-04-25T15:11:03.081Z,1.37
2019-04-25T15:13:31.867Z,1.83
2019-04-25T15:16:00.493Z,1.47
2019-04-25T15:18:28.874Z,1.10
2019-04-25T15:20:57.250Z,3.83
2019-04-25T15:23:25.685Z,2.90
2019-04-25T15:25:54.065Z,2.00
2019-04-25T15:28:24.379Z,1.93
2019-04-25T15:30:53.315Z,2.20
2019-04-25T15:33:21.997Z,4.10
2019-04-25T15:35:55.007Z,1.00
2019-04-25T15:38:25.019Z,2.50
2019-04-25T15:40:55.145Z,1.53
2019-04-25T15:43:31.422Z,2.13
2019-04-25T15:46:04.143Z,2.30
2019-04-25T15:48:33.230Z,3.00
2019-04-25T15:51:01.841Z,1.33
2019-04-25T15:53:30.642Z,2.50
2019-04-25T15:55:59.546Z,2.93
2019-04-25T15:58:28.080Z,2.63
2019-04-25T16:00:56.839Z,1.67
2019-04-25T16:03:25.152Z,3.50
2019-04-25T16:05:53.776Z,1.77
2019-04-25T16:08:22.268Z,2.27
2019-04-25T16:10:50.685Z,2.40
2019-04-25T16:13:19.226Z,3.83
2019-04-25T16:15:47.680Z,2.07
2019-04-25T16:18:16.316Z,7.67
2019-04-25T16:20:44.772Z,3.90
2019-04-25T16:23:13.504Z,6.93
2019-04-25T16:25:41.876Z,7.33
2019-04-25T16:28:10.572Z,4.97
2019-04-25T16:30:40.818Z,4.70
2019-04-25T16:33:09.953Z,5.37
2019-04-25T16:35:38.694Z,2.37
2019-04-25T16:38:07.294Z,1.80
2019-04-25T16:40:36.233Z,4.53
2019-04-25T16:43:07.011Z,2.93
2019-04-25T16:45:37.760Z,4.53
2019-04-25T16:48:06.454Z,2.63
2019-04-25T16:50:35.108Z,2.80
2019-04-25T16:53:03.485Z,4.93
2019-04-25T16:55:32.512Z,4.73
2019-04-25T16:58:01.056Z,1.60
2019-04-25T17:00:40.836Z,1.63
2019-04-25T17:03:09.490Z,1.73
2019-04-25T17:05:39.343Z,6.10
2019-04-25T17:08:08.161Z,2.90
2019-04-25T17:10:36.918Z,2.60
2019-04-25T17:13:06.734Z,3.23
2019-04-25T17:15:52.100Z,6.97
2019-04-25T17:18:22.080Z,4.43
2019-04-25T17:21:01.364Z,3.37
2019-04-25T17:23:30.104Z,7.17
2019-04-25T17:25:59.328Z,5.80
2019-04-25T17:28:30.335Z,4.90
2019-04-25T17:31:01.588Z,5.37
2019-04-25T17:33:32.317Z,3.23
2019-04-25T17:36:02.626Z,4.70
2019-04-25T17:38:36.158Z,5.00
2019-04-25T17:41:04.627Z,1.90
2019-04-25T17:43:34.238Z,1.50
2019-04-25T17:46:04.728Z,1.67
2019-04-25T17:48:34.076Z,2.93
2019-04-25T17:51:02.671Z,1.77
2019-04-25T17:53:32.936Z,2.00
2019-04-25T17:56:01.446Z,5.50
2019-04-25T17:58:29.806Z,4.83
2019-04-25T18:00:58.638Z,4.80
2019-04-25T18:03:28.919Z,3.33
2019-04-25T18:05:57.568Z,3.60
2019-04-25T18:08:26.278Z,4.93
2019-04-25T18:10:54.639Z,3.20
2019-04-25T18:13:23.184Z,10.23
2019-04-25T18:15:59.211Z,8.70
2019-04-25T18:18:45.670Z,5.33
2019-04-25T18:21:14.166Z,9.90
2019-04-25T18:24:00.332Z,9.60
2019-04-25T18:26:33.231Z,2.20
2019-04-25T18:29:14.595Z,10.67
2019-04-25T18:31:43.856Z,9.13
2019-04-25T18:34:13.966Z,10.03
2019-04-25T18:36:55.908Z,12.30
2019-04-25T18:39:25.905Z,9.70
2019-04-25T18:41:55.684Z,8.27
2019-04-25T18:44:24.162Z,7.60
2019-04-25T18:46:52.665Z,13.37
2019-04-25T18:49:21.053Z,12.03
2019-04-25T18:51:57.524Z,7.90
2019-04-25T18:54:25.127Z,2.90
2019-04-25T18:57:01.066Z,4.03
2019-04-25T18:59:48.219Z,11.00
2019-04-25T19:02:33.901Z,5.50
2019-04-25T19:05:03.965Z,3.90
2019-04-25T19:07:32.437Z,4.30
2019-04-25T19:10:00.914Z,4.03
2019-04-25T19:12:29.302Z,2.80
2019-04-25T19:14:57.976Z,9.60
2019-04-25T19:17:26.400Z,2.30
2019-04-25T19:19:55.032Z,4.00
2019-04-25T19:22:23.667Z,5.50
2019-04-25T19:24:52.250Z,4.87
2019-04-25T19:27:24.047Z,1.83
2019-04-25T19:29:52.533Z,3.77
2019-04-25T19:32:21.145Z,4.23
2019-04-25T19:34:49.525Z,5.93
2019-04-25T19:37:17.966Z,2.37
2019-04-25T19:40:04.317Z,8.63
2019-04-25T19:42:34.402Z,8.20
2019-04-25T19:45:03.014Z,3.50
2019-04-25T19:47:31.420Z,4.17
2019-04-25T19:49:59.976Z,6.10
2019-04-25T19:52:29.695Z,7.13
2019-04-25T19:54:58.107Z,5.13
2019-04-25T19:57:26.888Z,2.63
2019-04-25T19:59:56.738Z,3.70
2019-04-25T20:02:29.305Z,1.77
2019-04-25T20:04:59.322Z,7.90
2019-04-25T20:07:37.953Z,4.93
2019-04-25T20:10:09.148Z,5.23
2019-04-25T20:12:45.396Z,2.17
2019-04-25T20:15:15.430Z,2.73
2019-04-25T20:17:44.838Z,2.10
2019-04-25T20:20:14.150Z,2.20
2019-04-25T20:22:42.526Z,1.90
2019-04-25T20:25:11.233Z,3.13
2019-04-25T20:27:39.606Z,4.10
2019-04-25T20:30:08.451Z,3.63
2019-04-25T20:32:36.829Z,2.67
2019-04-25T20:35:05.450Z,2.67
2019-04-25T20:37:33.735Z,2.17
2019-04-25T20:40:03.733Z,1.33
2019-04-25T20:42:32.009Z,1.23
2019-04-25T20:45:00.362Z,1.10
2019-04-25T20:47:28.751Z,2.10
2019-04-25T20:49:57.793Z,3.10
2019-04-25T20:52:27.890Z,1.50
2019-04-25T20:54:56.975Z,1.63
2019-04-25T20:57:25.390Z,1.10
2019-04-25T20:59:53.923Z,1.40
2019-04-25T21:02:22.179Z,1.30
2019-04-25T21:04:50.606Z,1.20
2019-04-25T21:07:19.034Z,1.90
2019-04-25T21:09:47.445Z,1.10
2019-04-25T21:12:15.889Z,1.60
2019-04-25T21:14:45.939Z,5.00
2019-04-25T21:17:18.831Z,1.23
2019-04-25T21:19:54.796Z,1.30
2019-04-25T21:22:23.073Z,2.30
2019-04-25T21:24:51.870Z,1.20
2019-04-25T21:27:20.536Z,1.03
2019-04-25T21:29:49.020Z,1.20
2019-04-25T21:32:19.217Z,2.40
2019-04-25T21:34:47.546Z,1.50
2019-04-25T21:37:16.386Z,1.40
2019-04-25T21:39:47.754Z,1.30
2019-04-25T21:42:21.344Z,1.37
2019-04-25T21:44:50.141Z,6.53
2019-04-25T21:47:18.597Z,1.30
2019-04-25T21:49:47.350Z,1.23
2019-04-25T21:52:15.760Z,1.10
2019-04-25T21:54:44.504Z,1.30
2019-04-25T21:57:13.131Z,1.30
2019-04-25T21:59:41.717Z,1.23
2019-04-25T22:02:10.097Z,3.17
2019-04-25T22:04:41.241Z,1.53
2019-04-25T22:07:08.865Z,1.40
2019-04-25T22:09:37.525Z,1.40
2019-04-25T22:12:08.171Z,1.27
2019-04-25T22:14:36.547Z,1.43
2019-04-25T22:17:06.000Z,1.53
2019-04-25T22:19:35.013Z,5.13
2019-04-25T22:22:04.696Z,1.77
2019-04-25T22:24:33.173Z,1.60
2019-04-25T22:27:03.360Z,1.80
2019-04-25T22:29:33.330Z,1.40
2019-04-25T22:32:03.474Z,1.90
2019-04-25T22:34:33.855Z,1.37
2019-04-25T22:37:02.334Z,1.30
2019-04-25T22:39:30.939Z,2.53
2019-04-25T22:41:59.756Z,1.27
2019-04-25T22:44:29.372Z,1.27
2019-04-25T22:46:58.074Z,1.40
2019-04-25T22:49:26.443Z,2.73
2019-04-25T22:51:54.800Z,1.87
2019-04-25T22:54:23.875Z,1.40
2019-04-25T22:56:52.276Z,1.30
2019-04-25T22:59:20.944Z,1.60
2019-04-25T23:01:51.037Z,1.60
2019-04-25T23:04:36.291Z,2.07
2019-04-25T23:07:05.929Z,1.60
2019-04-25T23:09:36.347Z,1.50
2019-04-25T23:12:06.659Z,1.53
2019-04-25T23:14:35.462Z,1.67
2019-04-25T23:17:04.990Z,2.03
2019-04-25T23:19:33.337Z,1.80
2019-04-25T23:22:01.708Z,1.90
2019-04-25T23:24:31.675Z,2.40
2019-04-25T23:27:14.377Z,1.43
2019-04-25T23:29:42.794Z,3.40
2019-04-25T23:32:12.432Z,2.20
2019-04-25T23:34:40.837Z,1.60
2019-04-25T23:37:09.308Z,4.03
2019-04-25T23:39:37.985Z,2.17
2019-04-25T23:42:07.294Z,1.90
2019-04-25T23:44:35.903Z,2.77
2019-04-25T23:47:04.269Z,2.30
2019-04-25T23:49:32.597Z,3.13
2019-04-25T23:52:01.125Z,1.57
2019-04-25T23:54:29.521Z,1.70
2019-04-25T23:56:58.105Z,1.73
2019-04-25T23:59:26.582Z,2.00
